createdAt,value
2018-09-29T00:00:43.693Z,37.66
2018-09-29T00:03:12.507Z,37.48
2018-09-29T00:05:41.235Z,37.26
2018-09-29T00:08:10.023Z,37.48
2018-09-29T00:10:38.813Z,37.20
2018-09-29T00:13:07.546Z,37.05
2018-09-29T00:15:36.340Z,37.31
2018-09-29T00:18:05.318Z,36.97
2018-09-29T00:20:34.064Z,37.27
2018-09-29T00:23:02.951Z,36.65
2018-09-29T00:25:31.724Z,36.91
2018-09-29T00:28:00.536Z,37.05
2018-09-29T00:30:29.295Z,36.40
2018-09-29T00:32:58.093Z,36.55
2018-09-29T00:35:26.847Z,36.41
2018-09-29T00:37:55.641Z,36.89
2018-09-29T00:40:24.484Z,36.88
2018-09-29T00:42:53.257Z,36.81
2018-09-29T00:45:22.123Z,36.28
2018-09-29T00:47:50.913Z,36.23
2018-09-29T00:50:19.685Z,36.44
2018-09-29T00:52:48.552Z,36.50
2018-09-29T00:55:17.318Z,36.15
2018-09-29T00:57:46.082Z,36.61
2018-09-29T01:00:14.918Z,36.02
2018-09-29T01:02:43.670Z,36.62
2018-09-29T01:05:12.486Z,36.32
2018-09-29T01:07:41.349Z,36.32
2018-09-29T01:10:10.156Z,36.11
2018-09-29T01:12:38.936Z,36.01
2018-09-29T01:15:07.732Z,36.21
2018-09-29T01:17:36.495Z,35.83
2018-09-29T01:20:05.884Z,36.32
2018-09-29T01:22:34.778Z,36.26
2018-09-29T01:25:03.689Z,36.06
2018-09-29T01:27:32.488Z,35.87
2018-09-29T01:30:01.260Z,35.62
2018-09-29T01:32:30.075Z,35.54
2018-09-29T01:34:58.825Z,35.44
2018-09-29T01:37:27.577Z,35.99
2018-09-29T01:39:56.386Z,35.46
2018-09-29T01:42:25.198Z,35.92
2018-09-29T01:44:53.978Z,35.82
2018-09-29T01:47:22.791Z,35.67
2018-09-29T01:49:51.526Z,35.31
2018-09-29T01:52:20.390Z,35.72
2018-09-29T01:54:49.173Z,35.06
2018-09-29T01:57:17.933Z,35.41
2018-09-29T01:59:46.746Z,35.16
2018-09-29T02:02:15.549Z,35.42
2018-09-29T02:04:44.338Z,35.12
2018-09-29T02:07:13.117Z,35.47
2018-09-29T02:09:41.867Z,35.59
2018-09-29T02:12:11.538Z,35.46
2018-09-29T02:14:40.300Z,35.50
2018-09-29T02:17:09.080Z,35.14
2018-09-29T02:19:37.859Z,35.38
2018-09-29T02:22:06.624Z,35.34
2018-09-29T02:24:35.449Z,35.32
2018-09-29T02:27:04.452Z,34.73
2018-09-29T02:29:33.263Z,35.26
2018-09-29T02:32:02.043Z,35.25
2018-09-29T02:34:30.822Z,35.02
2018-09-29T02:36:59.647Z,34.56
2018-09-29T02:39:28.526Z,34.64
2018-09-29T02:41:57.345Z,34.76
2018-09-29T02:44:26.239Z,34.57
2018-09-29T02:46:55.031Z,35.13
2018-09-29T02:49:23.899Z,35.12
2018-09-29T02:51:52.721Z,35.00
2018-09-29T02:54:21.620Z,35.04
2018-09-29T02:56:50.472Z,34.46
2018-09-29T02:59:19.227Z,34.86
2018-09-29T03:01:47.989Z,34.43
2018-09-29T03:04:16.769Z,34.99
2018-09-29T03:06:45.597Z,34.87
2018-09-29T03:09:14.333Z,34.39
2018-09-29T03:11:43.106Z,34.38
2018-09-29T03:14:11.890Z,34.28
2018-09-29T03:16:40.690Z,34.48
2018-09-29T03:19:09.559Z,34.77
2018-09-29T03:21:38.438Z,34.28
2018-09-29T03:24:07.143Z,34.33
2018-09-29T03:26:35.965Z,34.23
2018-09-29T03:29:04.807Z,34.72
2018-09-29T03:31:33.712Z,34.28
2018-09-29T03:34:02.732Z,34.26
2018-09-29T03:36:31.560Z,34.66
2018-09-29T03:39:00.311Z,34.18
2018-09-29T03:41:29.132Z,34.01
2018-09-29T03:43:57.993Z,34.34
2018-09-29T03:46:26.798Z,34.11
2018-09-29T03:48:55.638Z,33.95
2018-09-29T03:51:24.339Z,34.18
2018-09-29T03:53:53.228Z,34.50
2018-09-29T03:56:22.086Z,33.87
2018-09-29T03:58:50.895Z,34.48
2018-09-29T04:01:20.726Z,34.42
2018-09-29T04:03:49.467Z,34.42
2018-09-29T04:06:18.257Z,33.90
2018-09-29T04:08:47.059Z,34.08
2018-09-29T04:11:15.862Z,33.74
2018-09-29T04:13:44.777Z,34.66
2018-09-29T04:16:13.691Z,33.83
2018-09-29T04:18:42.468Z,34.29
2018-09-29T04:21:11.356Z,33.70
2018-09-29T04:23:40.249Z,34.11
2018-09-29T04:26:08.994Z,33.77
2018-09-29T04:28:37.849Z,33.70
2018-09-29T04:31:06.647Z,34.07
2018-09-29T04:33:35.474Z,33.61
2018-09-29T04:36:04.548Z,33.57
2018-09-29T04:38:33.309Z,33.57
2018-09-29T04:41:02.133Z,33.55
2018-09-29T04:43:30.859Z,33.98
2018-09-29T04:45:59.679Z,34.05
2018-09-29T04:48:28.552Z,34.01
2018-09-29T04:50:57.396Z,33.55
2018-09-29T04:53:26.169Z,33.88
2018-09-29T04:55:54.905Z,33.36
2018-09-29T04:58:23.720Z,33.60
2018-09-29T05:00:52.589Z,33.61
2018-09-29T05:03:21.404Z,33.36
2018-09-29T05:05:50.236Z,33.33
2018-09-29T05:08:19.648Z,33.32
2018-09-29T05:10:48.564Z,33.46
2018-09-29T05:13:17.335Z,33.27
2018-09-29T05:15:46.267Z,33.56
2018-09-29T05:18:15.240Z,33.57
2018-09-29T05:20:44.043Z,33.40
2018-09-29T05:23:12.926Z,33.77
2018-09-29T05:25:41.735Z,33.76
2018-09-29T05:28:10.626Z,33.20
2018-09-29T05:30:39.491Z,33.69
2018-09-29T05:33:08.263Z,33.35
2018-09-29T05:35:37.056Z,33.64
2018-09-29T05:38:05.860Z,33.70
2018-09-29T05:40:35.696Z,33.12
2018-09-29T05:43:04.479Z,33.10
2018-09-29T05:45:33.298Z,33.16
2018-09-29T05:48:02.088Z,33.21
2018-09-29T05:50:30.889Z,33.13
2018-09-29T05:52:59.698Z,33.10
2018-09-29T05:55:28.480Z,33.61
2018-09-29T05:57:57.274Z,33.66
2018-09-29T06:00:26.085Z,33.08
2018-09-29T06:02:54.981Z,33.19
2018-09-29T06:05:23.864Z,33.61
2018-09-29T06:07:52.754Z,33.24
2018-09-29T06:10:21.573Z,33.54
2018-09-29T06:12:50.431Z,33.65
2018-09-29T06:15:19.207Z,32.95
2018-09-29T06:17:48.003Z,33.57
2018-09-29T06:20:16.865Z,32.94
2018-09-29T06:22:45.687Z,33.47
2018-09-29T06:25:14.557Z,33.34
2018-09-29T06:27:43.366Z,33.47
2018-09-29T06:30:12.158Z,32.95
2018-09-29T06:32:41.009Z,32.94
2018-09-29T06:35:09.824Z,33.45
2018-09-29T06:37:38.667Z,33.05
2018-09-29T06:40:07.563Z,32.94
2018-09-29T06:42:36.336Z,32.91
2018-09-29T06:45:06.485Z,33.53
2018-09-29T06:47:35.294Z,32.77
2018-09-29T06:50:04.217Z,32.79
2018-09-29T06:52:33.065Z,33.44
2018-09-29T06:55:01.899Z,32.81
2018-09-29T06:57:30.749Z,32.99
2018-09-29T06:59:59.529Z,32.81
2018-09-29T07:02:28.427Z,32.71
2018-09-29T07:04:57.312Z,32.71
2018-09-29T07:07:26.169Z,32.66
2018-09-29T07:09:55.039Z,33.25
2018-09-29T07:12:23.857Z,32.64
2018-09-29T07:14:52.735Z,32.61
2018-09-29T07:17:21.552Z,32.75
2018-09-29T07:19:50.390Z,33.15
2018-09-29T07:22:19.173Z,32.93
2018-09-29T07:24:48.066Z,32.49
2018-09-29T07:27:16.938Z,32.59
2018-09-29T07:29:45.714Z,32.54
2018-09-29T07:32:14.646Z,32.40
2018-09-29T07:34:43.523Z,32.56
2018-09-29T07:37:12.405Z,32.46
2018-09-29T07:39:41.353Z,32.44
2018-09-29T07:42:10.317Z,32.85
2018-09-29T07:44:39.160Z,32.87
2018-09-29T07:47:08.035Z,32.86
2018-09-29T07:49:36.954Z,32.14
2018-09-29T07:52:05.814Z,32.23
2018-09-29T07:54:34.731Z,32.35
2018-09-29T07:57:04.372Z,32.20
2018-09-29T07:59:33.209Z,32.71
2018-09-29T08:02:02.127Z,32.31
2018-09-29T08:04:30.984Z,32.75
2018-09-29T08:06:59.775Z,32.24
2018-09-29T08:09:28.671Z,32.75
2018-09-29T08:11:57.540Z,32.22
2018-09-29T08:14:26.424Z,32.74
2018-09-29T08:16:55.322Z,32.63
2018-09-29T08:19:24.232Z,32.36
2018-09-29T08:21:53.053Z,32.05
2018-09-29T08:24:21.954Z,32.02
2018-09-29T08:26:51.008Z,32.01
2018-09-29T08:29:19.892Z,32.56
2018-09-29T08:31:48.747Z,32.20
2018-09-29T08:34:17.657Z,32.44
2018-09-29T08:36:46.521Z,32.53
2018-09-29T08:39:15.393Z,31.99
2018-09-29T08:41:44.344Z,32.18
2018-09-29T08:44:13.425Z,32.51
2018-09-29T08:46:42.371Z,31.85
2018-09-29T08:49:11.260Z,32.33
2018-09-29T08:51:40.153Z,32.35
2018-09-29T08:54:09.002Z,32.26
2018-09-29T08:56:38.133Z,32.38
2018-09-29T08:59:07.001Z,32.43
2018-09-29T09:01:35.810Z,32.17
2018-09-29T09:04:04.961Z,32.41
2018-09-29T09:06:33.753Z,32.61
2018-09-29T09:09:02.574Z,32.24
2018-09-29T09:11:31.559Z,32.19
2018-09-29T09:14:00.360Z,32.42
2018-09-29T09:16:29.183Z,32.39
2018-09-29T09:18:58.095Z,32.80
2018-09-29T09:21:27.135Z,32.96
2018-09-29T09:23:56.139Z,32.86
2018-09-29T09:26:25.238Z,32.87
2018-09-29T09:28:54.055Z,32.57
2018-09-29T09:31:22.813Z,32.27
2018-09-29T09:33:51.681Z,32.66
2018-09-29T09:36:20.525Z,32.41
2018-09-29T09:38:49.348Z,32.71
2018-09-29T09:42:47.424Z,32.67
2018-09-29T09:45:16.252Z,32.06
2018-09-29T09:47:45.143Z,32.33
2018-09-29T09:50:14.927Z,32.68
2018-09-29T09:52:43.764Z,33.09
2018-09-29T09:55:12.492Z,32.93
2018-09-29T09:57:41.278Z,33.64
2018-09-29T10:00:10.158Z,33.26
2018-09-29T10:02:46.915Z,33.28
2018-09-29T10:05:15.788Z,33.85
2018-09-29T10:07:44.605Z,33.83
2018-09-29T10:10:13.419Z,33.91
2018-09-29T10:12:42.213Z,34.06
2018-09-29T10:15:11.075Z,34.54
2018-09-29T10:17:39.957Z,34.55
2018-09-29T10:20:08.779Z,34.25
2018-09-29T10:22:37.567Z,34.44
2018-09-29T10:25:06.448Z,34.62
2018-09-29T10:27:35.277Z,34.55
2018-09-29T10:30:04.191Z,34.38
2018-09-29T10:32:33.082Z,34.29
2018-09-29T10:35:01.904Z,34.21
2018-09-29T10:37:30.740Z,33.79
2018-09-29T10:39:59.594Z,34.04
2018-09-29T10:42:28.420Z,33.83
2018-09-29T10:44:57.181Z,33.96
2018-09-29T10:47:26.060Z,33.35
2018-09-29T10:49:54.834Z,33.25
2018-09-29T10:52:23.691Z,33.41
2018-09-29T10:54:52.642Z,33.62
2018-09-29T10:57:21.403Z,33.52
2018-09-29T10:59:50.668Z,33.09
2018-09-29T11:02:19.886Z,33.54
2018-09-29T11:04:48.799Z,32.90
2018-09-29T11:07:17.702Z,33.49
2018-09-29T11:09:46.541Z,32.74
2018-09-29T11:12:15.376Z,32.72
2018-09-29T11:14:44.395Z,32.62
2018-09-29T11:17:13.177Z,33.01
2018-09-29T11:19:42.077Z,32.56
2018-09-29T11:22:10.843Z,33.03
2018-09-29T11:24:39.652Z,32.37
2018-09-29T11:27:08.387Z,32.69
2018-09-29T11:29:37.194Z,32.77
2018-09-29T11:32:06.145Z,32.85
2018-09-29T11:34:34.976Z,32.22
2018-09-29T11:37:03.959Z,32.84
2018-09-29T11:39:32.818Z,32.68
2018-09-29T11:42:01.564Z,32.17
2018-09-29T11:44:30.319Z,32.14
2018-09-29T11:46:59.123Z,32.24
2018-09-29T11:49:28.055Z,32.61
2018-09-29T11:51:56.835Z,32.04
2018-09-29T11:54:25.660Z,32.51
2018-09-29T11:56:54.621Z,32.51
2018-09-29T11:59:23.412Z,32.04
2018-09-29T12:01:52.315Z,31.93
2018-09-29T12:04:21.068Z,32.50
2018-09-29T12:06:50.109Z,32.33
2018-09-29T12:09:18.895Z,32.51
2018-09-29T12:11:47.726Z,32.45
2018-09-29T12:14:16.620Z,31.97
2018-09-29T12:16:45.423Z,32.04
2018-09-29T12:19:14.229Z,32.43
2018-09-29T12:21:42.985Z,31.79
2018-09-29T12:24:11.874Z,31.99
2018-09-29T12:26:40.831Z,31.83
2018-09-29T12:29:09.730Z,31.83
2018-09-29T12:31:38.721Z,31.70
2018-09-29T12:34:07.484Z,32.20
2018-09-29T12:36:36.443Z,31.70
2018-09-29T12:39:07.927Z,32.27
2018-09-29T12:41:36.824Z,31.65
2018-09-29T12:44:05.660Z,31.60
2018-09-29T12:46:34.483Z,31.99
2018-09-29T12:49:03.737Z,31.84
2018-09-29T12:51:32.528Z,32.19
2018-09-29T12:54:01.398Z,31.86
2018-09-29T12:56:30.473Z,31.54
2018-09-29T12:59:00.014Z,32.04
2018-09-29T13:01:29.065Z,31.45
2018-09-29T13:03:57.894Z,31.94
2018-09-29T13:06:26.731Z,31.41
2018-09-29T13:08:55.649Z,31.93
2018-09-29T13:11:24.641Z,31.58
2018-09-29T13:13:53.532Z,31.79
2018-09-29T13:16:22.488Z,31.95
2018-09-29T13:18:51.316Z,31.80
2018-09-29T13:21:20.114Z,31.40
2018-09-29T13:23:48.959Z,31.98
2018-09-29T13:26:17.789Z,31.50
2018-09-29T13:28:46.577Z,32.01
2018-09-29T13:31:15.437Z,32.08
2018-09-29T13:33:44.251Z,31.58
2018-09-29T13:36:17.183Z,31.49
2018-09-29T13:38:47.591Z,32.09
2018-09-29T13:41:16.636Z,31.42
2018-09-29T13:43:45.879Z,31.38
2018-09-29T13:46:14.867Z,31.88
2018-09-29T13:48:43.860Z,31.52
2018-09-29T13:51:12.738Z,31.30
2018-09-29T13:53:41.797Z,31.77
2018-09-29T13:56:10.538Z,31.90
2018-09-29T13:58:39.531Z,31.84
2018-09-29T14:01:08.324Z,31.34
2018-09-29T14:03:37.380Z,31.33
2018-09-29T14:06:06.235Z,31.96
2018-09-29T14:08:34.990Z,31.33
2018-09-29T14:11:03.813Z,31.42
2018-09-29T14:13:32.782Z,31.98
2018-09-29T14:16:01.741Z,31.32
2018-09-29T14:18:30.663Z,31.95
2018-09-29T14:20:59.705Z,31.40
2018-09-29T14:23:28.521Z,31.45
2018-09-29T14:25:57.344Z,31.44
2018-09-29T14:28:26.097Z,31.85
2018-09-29T14:30:55.005Z,31.97
2018-09-29T14:33:23.801Z,31.45
2018-09-29T14:35:52.873Z,31.99
2018-09-29T14:38:22.067Z,31.96
2018-09-29T14:40:50.887Z,31.49
2018-09-29T14:43:19.679Z,31.38
2018-09-29T14:45:48.594Z,32.04
2018-09-29T14:48:17.494Z,31.48
2018-09-29T14:50:46.332Z,31.82
2018-09-29T14:53:15.235Z,31.72
2018-09-29T14:55:44.134Z,32.11
2018-09-29T14:58:13.726Z,32.03
2018-09-29T15:00:43.034Z,32.13
2018-09-29T15:03:11.711Z,32.02
2018-09-29T15:05:40.604Z,31.68
2018-09-29T15:08:09.707Z,32.04
2018-09-29T15:10:38.696Z,32.11
2018-09-29T15:13:07.519Z,31.60
2018-09-29T15:15:36.449Z,32.14
2018-09-29T15:18:05.287Z,32.07
2018-09-29T15:20:34.242Z,32.12
2018-09-29T15:23:03.184Z,32.24
2018-09-29T15:25:32.310Z,31.85
2018-09-29T15:28:01.180Z,32.24
2018-09-29T15:30:30.055Z,31.71
2018-09-29T15:32:59.205Z,31.73
2018-09-29T15:35:28.208Z,32.02
2018-09-29T15:37:57.064Z,31.86
2018-09-29T15:40:26.140Z,32.19
2018-09-29T15:42:55.165Z,32.42
2018-09-29T15:45:23.990Z,32.46
2018-09-29T15:47:52.844Z,32.01
2018-09-29T15:50:21.641Z,31.91
2018-09-29T15:52:50.467Z,32.53
2018-09-29T15:55:19.596Z,31.94
2018-09-29T15:57:48.442Z,32.20
2018-09-29T16:00:17.264Z,31.85
2018-09-29T16:02:46.920Z,32.56
2018-09-29T16:05:16.059Z,32.49
2018-09-29T16:07:44.884Z,32.56
2018-09-29T16:10:13.752Z,32.61
2018-09-29T16:12:42.750Z,32.63
2018-09-29T16:15:11.859Z,32.68
2018-09-29T16:17:40.679Z,32.37
2018-09-29T16:20:09.652Z,32.07
2018-09-29T16:22:38.733Z,32.69
2018-09-29T16:25:07.775Z,32.18
2018-09-29T16:27:36.714Z,32.52
2018-09-29T16:30:06.318Z,32.39
2018-09-29T16:32:35.103Z,32.12
2018-09-29T16:35:04.158Z,32.16
2018-09-29T16:37:32.985Z,32.30
2018-09-29T16:40:01.891Z,32.20
2018-09-29T16:42:30.743Z,32.18
2018-09-29T16:45:00.659Z,32.57
2018-09-29T16:47:29.677Z,32.35
2018-09-29T16:49:58.665Z,32.18
2018-09-29T16:52:27.926Z,32.81
2018-09-29T16:54:56.855Z,32.78
2018-09-29T16:57:25.846Z,32.49
2018-09-29T16:59:54.734Z,32.21
2018-09-29T17:02:23.567Z,32.34
2018-09-29T17:04:52.558Z,32.57
2018-09-29T17:07:21.269Z,32.31
2018-09-29T17:09:50.076Z,32.27
2018-09-29T17:12:19.002Z,32.87
2018-09-29T17:14:47.991Z,32.90
2018-09-29T17:17:16.787Z,32.33
2018-09-29T17:19:45.634Z,32.65
2018-09-29T17:22:14.580Z,32.88
2018-09-29T17:24:43.536Z,32.66
2018-09-29T17:27:12.467Z,33.20
2018-09-29T17:29:41.416Z,32.45
2018-09-29T17:32:10.237Z,32.71
2018-09-29T17:34:39.265Z,32.61
2018-09-29T17:37:08.218Z,33.16
2018-09-29T17:39:37.152Z,32.68
2018-09-29T17:42:06.034Z,33.21
2018-09-29T17:44:34.875Z,33.25
2018-09-29T17:47:04.356Z,32.72
2018-09-29T17:49:33.168Z,33.06
2018-09-29T17:52:02.019Z,33.12
2018-09-29T17:54:31.043Z,32.81
2018-09-29T17:56:59.963Z,32.78
2018-09-29T17:59:28.803Z,33.36
2018-09-29T18:01:57.770Z,32.81
2018-09-29T18:04:26.696Z,33.42
2018-09-29T18:06:55.433Z,33.20
2018-09-29T18:09:25.180Z,32.88
2018-09-29T18:11:54.262Z,32.85
2018-09-29T18:14:23.107Z,33.18
2018-09-29T18:16:52.101Z,33.21
2018-09-29T18:19:20.909Z,32.72
2018-09-29T18:21:49.752Z,33.03
2018-09-29T18:24:18.804Z,33.44
2018-09-29T18:26:47.758Z,33.56
2018-09-29T18:29:16.629Z,33.00
2018-09-29T18:31:45.575Z,32.98
2018-09-29T18:34:14.453Z,33.03
2018-09-29T18:36:43.543Z,33.03
2018-09-29T18:39:12.434Z,33.03
2018-09-29T18:41:41.252Z,33.34
2018-09-29T18:44:10.133Z,33.67
2018-09-29T18:46:39.031Z,33.68
2018-09-29T18:49:08.015Z,33.68
2018-09-29T18:51:37.070Z,33.29
2018-09-29T18:54:06.046Z,33.62
2018-09-29T18:56:34.950Z,33.66
2018-09-29T18:59:04.190Z,33.68
2018-09-29T19:01:32.970Z,33.35
2018-09-29T19:04:01.789Z,32.88
2018-09-29T19:06:30.745Z,33.05
2018-09-29T19:08:59.730Z,33.28
2018-09-29T19:11:28.544Z,33.19
2018-09-29T19:13:57.490Z,33.05
2018-09-29T19:16:26.305Z,33.45
2018-09-29T19:18:55.261Z,33.11
2018-09-29T19:21:24.156Z,33.16
2018-09-29T19:23:52.975Z,33.62
2018-09-29T19:26:21.802Z,33.58
2018-09-29T19:28:50.675Z,33.22
2018-09-29T19:31:19.614Z,33.48
2018-09-29T19:33:48.445Z,33.48
2018-09-29T19:36:17.344Z,33.00
2018-09-29T19:38:46.350Z,33.68
2018-09-29T19:41:15.379Z,33.44
2018-09-29T19:43:44.219Z,33.11
2018-09-29T19:46:13.083Z,33.64
2018-09-29T19:48:42.035Z,33.61
2018-09-29T19:51:11.043Z,33.25
2018-09-29T19:53:39.975Z,33.50
2018-09-29T19:56:08.919Z,33.07
2018-09-29T19:58:37.736Z,33.36
2018-09-29T20:01:06.688Z,33.66
2018-09-29T20:03:35.620Z,33.32
2018-09-29T20:06:04.511Z,33.71
2018-09-29T20:08:33.404Z,33.64
2018-09-29T20:11:02.588Z,33.70
2018-09-29T20:13:31.383Z,33.13
2018-09-29T20:16:00.219Z,33.66
2018-09-29T20:18:29.127Z,33.63
2018-09-29T20:20:58.051Z,33.54
2018-09-29T20:23:26.942Z,33.26
2018-09-29T20:25:55.704Z,33.18
2018-09-29T20:28:24.550Z,33.24
2018-09-29T20:30:53.364Z,33.72
2018-09-29T20:33:22.210Z,33.47
2018-09-29T20:35:51.982Z,33.26
2018-09-29T20:38:20.866Z,33.19
2018-09-29T20:40:49.753Z,33.27
2018-09-29T20:43:18.568Z,33.30
2018-09-29T20:45:47.365Z,33.75
2018-09-29T20:48:16.285Z,33.22
2018-09-29T20:50:45.278Z,33.27
2018-09-29T20:53:14.085Z,33.24
2018-09-29T20:55:42.850Z,33.22
2018-09-29T20:58:11.680Z,33.32
2018-09-29T21:00:40.475Z,33.80
2018-09-29T21:03:09.300Z,33.29
2018-09-29T21:05:38.108Z,33.87
2018-09-29T21:08:06.953Z,33.50
2018-09-29T21:10:36.075Z,33.86
2018-09-29T21:13:05.294Z,33.30
2018-09-29T21:15:33.966Z,33.89
2018-09-29T21:18:02.727Z,33.27
2018-09-29T21:20:31.534Z,33.31
2018-09-29T21:23:00.332Z,33.83
2018-09-29T21:25:29.159Z,33.87
2018-09-29T21:27:57.948Z,33.77
2018-09-29T21:30:26.743Z,33.72
2018-09-29T21:32:55.527Z,33.73
2018-09-29T21:35:24.330Z,33.80
2018-09-29T21:37:53.061Z,33.90
2018-09-29T21:40:21.917Z,33.73
2018-09-29T21:42:50.655Z,33.34
2018-09-29T21:45:19.554Z,33.73
2018-09-29T21:47:48.313Z,33.43
2018-09-29T21:50:17.146Z,33.13
2018-09-29T21:52:45.977Z,33.89
2018-09-29T21:55:14.773Z,33.88
2018-09-29T21:57:43.594Z,33.88
2018-09-29T22:00:12.395Z,33.69
2018-09-29T22:02:41.269Z,33.80
2018-09-29T22:05:10.033Z,33.30
2018-09-29T22:07:38.815Z,33.56
2018-09-29T22:10:07.531Z,33.38
2018-09-29T22:12:36.347Z,33.78
2018-09-29T22:15:05.403Z,33.58
2018-09-29T22:17:34.273Z,33.64
2018-09-29T22:20:03.022Z,33.98
2018-09-29T22:22:31.776Z,34.96
2018-09-29T22:25:00.613Z,34.69
2018-09-29T22:27:29.400Z,34.95
2018-09-29T22:29:58.189Z,35.00
2018-09-29T22:32:26.947Z,35.81
2018-09-29T22:34:55.667Z,35.50
2018-09-29T22:37:24.476Z,35.64
2018-09-29T22:39:53.240Z,36.42
2018-09-29T22:42:22.004Z,36.59
2018-09-29T22:44:50.849Z,36.01
2018-09-29T22:47:19.700Z,37.02
2018-09-29T22:49:48.512Z,36.62
2018-09-29T22:52:17.256Z,36.94
2018-09-29T22:54:46.140Z,36.88
2018-09-29T22:57:14.952Z,37.61
2018-09-29T22:59:43.873Z,37.45
2018-09-29T23:02:12.724Z,37.71
2018-09-29T23:04:41.532Z,38.02
2018-09-29T23:07:10.291Z,37.72
2018-09-29T23:09:39.104Z,37.83
2018-09-29T23:12:07.947Z,38.47
2018-09-29T23:14:36.724Z,38.27
2018-09-29T23:17:05.734Z,38.12
2018-09-29T23:19:34.550Z,38.22
2018-09-29T23:22:03.390Z,38.41
2018-09-29T23:24:32.253Z,39.08
2018-09-29T23:27:01.571Z,39.33
2018-09-29T23:29:30.387Z,38.88
2018-09-29T23:31:59.195Z,39.02
2018-09-29T23:34:28.009Z,39.29
2018-09-29T23:36:56.928Z,39.78
2018-09-29T23:39:25.660Z,39.97
2018-09-29T23:41:54.535Z,39.94
2018-09-29T23:44:23.307Z,39.69
2018-09-29T23:46:52.053Z,39.94
2018-09-29T23:49:20.868Z,39.31
2018-09-29T23:51:49.654Z,39.83
2018-09-29T23:54:18.431Z,40.05
2018-09-29T23:56:47.206Z,39.56
2018-09-29T23:59:15.998Z,40.32
